Terminal Aerodrome Forecast
Issued by NWS Lake Charles, LA

Home | Current Version | Previous Version | Text Only | Print | Product List | Glossary On
Versions: 1 2 3 4 5 6 7 8 9 10 11 12 13 14 15 16 17 18
866
FTUS44 KLCH 290520
TAFBPT
TAF
KBPT 290520Z 2906/3006 04007KT P6SM BKN200
     FM291000 05010KT P6SM VCSH SCT015 BKN200
     FM291400 06014KT P6SM VCSH SCT015 BKN080 PROB30 2915/2918 4SM
      SHRA BKN015 BKN030
     FM291800 08012KT P6SM VCTS FEW015CB SCT025 BKN050 PROB30
      2918/2923 VRB12G20KT 2SM +TSRA BKN015CB OVC025
     FM300100 06008KT P6SM FEW050 BKN200=

USA.gov is the U.S. government's official web portal to all federal, state and local government web resources and services.